weather.gov     
National Weather Service

Terminal Aerodrome Forecast
NWS Homepage
This page is being discontinued on March 12, 2014.
The same data is available at this site. Please update your bookmarks.
Thank you, and we apologize for the inconvenience.
Please send an email to SR-SRH.Webmaster@noaa.gov with any concerns.


Current Version
Previous Version:    01  02  03  04  05  06  07  08  09  10  11  12  13  14  15  16  17  18  19  20  21  22  23  24  25  26  27  28  29  30  
   31  32  33  34  35  36  37  38  39  40  41  
[Printable]
113
FTUS44 KSHV 021100 RRA
TAFELD
TAF
KELD 021151Z 0212/0312 15003KT P6SM BKN022
     FM021500 18007KT P6SM SCT008 OVC015
     FM021600 19009KT P6SM SCT015 OVC025
     FM021700 19011G16KT P6SM BKN040 BKN070
     FM022000 19012G18KT P6SM VCSH BKN045 BKN100
     FM030000 16006KT P6SM BKN050 BKN250
     FM030600 22008KT 4SM TSRA BR OVC025CB
     FM031000 27008KT 4SM BR OVC015=


U.S. Dept. of Commerce
NOAA National Weather Service
1325 East West Highway
Silver Spring, MD 20910
E-mail: w-nws.webmaster@noaa.gov
Page last modified: May 16, 2007
NATIONAL WEATHER SERVICE: for Safety, for Work, for Fun - FOR LIFE